Terminal Aerodrome Forecast
Issued by NWS

Home | Current Version | Previous Version | Text Only | Print | Product List | Glossary On
Versions: 1 2 3 4 5 6 7 8 9 10 11 12
000
FTUS42 KTBW 022300
TAFLAL
TAF
KLAL 022335Z 0300/0324 12007KT P6SM FEW050 SCT150
     FM030200 VRB03KT P6SM FEW050 BKN250
     FM031600 13004KT P6SM FEW030 SCT250
     FM032000 05007KT P6SM VCTS SCT050CB SCT120 BKN250
      AMD NOT SKED 0303/0312=

USA.gov is the U.S. government's official web portal to all federal, state and local government web resources and services.